sensor_id;sensor_type;location;lat;lon;timestamp;P1;durP1;ratioP1;P2;durP2;ratioP2
34737;SDS011;39910;47.154;27.614;2023-03-29T00:00:06;10.75;;;10.15;;
34737;SDS011;39910;47.154;27.614;2023-03-29T00:02:35;10.88;;;10.27;;
34737;SDS011;39910;47.154;27.614;2023-03-29T00:05:00;10.55;;;9.95;;
34737;SDS011;39910;47.154;27.614;2023-03-29T00:07:27;10.70;;;10.10;;
34737;SDS011;39910;47.154;27.614;2023-03-29T00:09:53;9.85;;;9.35;;
34737;SDS011;39910;47.154;27.614;2023-03-29T00:12:19;10.25;;;9.75;;
34737;SDS011;39910;47.154;27.614;2023-03-29T00:14:44;10.65;;;10.05;;
34737;SDS011;39910;47.154;27.614;2023-03-29T00:17:10;10.73;;;10.13;;
34737;SDS011;39910;47.154;27.614;2023-03-29T00:19:35;9.95;;;9.45;;
34737;SDS011;39910;47.154;27.614;2023-03-29T00:22:01;10.25;;;9.75;;
34737;SDS011;39910;47.154;27.614;2023-03-29T00:24:26;10.75;;;10.15;;
34737;SDS011;39910;47.154;27.614;2023-03-29T00:26:52;10.77;;;10.18;;
34737;SDS011;39910;47.154;27.614;2023-03-29T00:29:18;11.13;;;10.52;;
34737;SDS011;39910;47.154;27.614;2023-03-29T00:31:45;11.00;;;10.40;;
34737;SDS011;39910;47.154;27.614;2023-03-29T00:34:16;11.38;;;10.70;;
34737;SDS011;39910;47.154;27.614;2023-03-29T00:36:42;10.60;;;10.10;;
34737;SDS011;39910;47.154;27.614;2023-03-29T00:39:08;12.43;;;11.63;;
34737;SDS011;39910;47.154;27.614;2023-03-29T00:41:33;10.38;;;9.88;;
34737;SDS011;39910;47.154;27.614;2023-03-29T00:44:00;11.10;;;10.50;;
34737;SDS011;39910;47.154;27.614;2023-03-29T00:46:26;10.25;;;9.75;;
34737;SDS011;39910;47.154;27.614;2023-03-29T00:48:52;10.63;;;10.13;;
34737;SDS011;39910;47.154;27.614;2023-03-29T00:51:18;11.38;;;10.75;;
34737;SDS011;39910;47.154;27.614;2023-03-29T00:53:48;10.27;;;9.77;;
34737;SDS011;39910;47.154;27.614;2023-03-29T00:56:33;10.65;;;10.15;;
34737;SDS011;39910;47.154;27.614;2023-03-29T00:59:04;10.90;;;10.30;;
34737;SDS011;39910;47.154;27.614;2023-03-29T01:04:06;10.68;;;10.13;;
34737;SDS011;39910;47.154;27.614;2023-03-29T01:06:33;11.13;;;10.52;;
34737;SDS011;39910;47.154;27.614;2023-03-29T01:09:05;10.90;;;10.30;;
34737;SDS011;39910;47.154;27.614;2023-03-29T01:11:34;10.95;;;10.35;;
34737;SDS011;39910;47.154;27.614;2023-03-29T01:14:05;11.10;;;10.50;;
34737;SDS011;39910;47.154;27.614;2023-03-29T01:16:32;10.95;;;10.35;;
34737;SDS011;39910;47.154;27.614;2023-03-29T01:18:59;10.82;;;10.25;;
34737;SDS011;39910;47.154;27.614;2023-03-29T01:21:34;12.32;;;11.52;;
34737;SDS011;39910;47.154;27.614;2023-03-29T01:31:49;11.88;;;11.18;;
34737;SDS011;39910;47.154;27.614;2023-03-29T01:34:19;11.75;;;11.05;;
34737;SDS011;39910;47.154;27.614;2023-03-29T01:39:13;11.68;;;10.98;;
34737;SDS011;39910;47.154;27.614;2023-03-29T01:41:45;11.68;;;10.98;;
34737;SDS011;39910;47.154;27.614;2023-03-29T01:44:16;11.13;;;10.53;;
34737;SDS011;39910;47.154;27.614;2023-03-29T01:49:13;11.75;;;11.05;;
34737;SDS011;39910;47.154;27.614;2023-03-29T01:51:42;11.77;;;11.07;;
34737;SDS011;39910;47.154;27.614;2023-03-29T01:56:34;11.68;;;10.98;;
34737;SDS011;39910;47.154;27.614;2023-03-29T01:59:01;11.23;;;10.63;;
34737;SDS011;39910;47.154;27.614;2023-03-29T02:01:28;10.90;;;10.30;;
34737;SDS011;39910;47.154;27.614;2023-03-29T02:03:56;10.73;;;10.15;;
34737;SDS011;39910;47.154;27.614;2023-03-29T02:06:24;10.40;;;9.90;;
34737;SDS011;39910;47.154;27.614;2023-03-29T02:08:51;10.27;;;9.77;;
34737;SDS011;39910;47.154;27.614;2023-03-29T02:11:17;10.80;;;10.20;;
34737;SDS011;39910;47.154;27.614;2023-03-29T02:13:43;10.73;;;10.13;;
34737;SDS011;39910;47.154;27.614;2023-03-29T02:16:10;10.45;;;9.95;;
34737;SDS011;39910;47.154;27.614;2023-03-29T02:18:39;10.20;;;9.70;;
34737;SDS011;39910;47.154;27.614;2023-03-29T02:21:05;11.30;;;10.70;;
34737;SDS011;39910;47.154;27.614;2023-03-29T02:23:36;10.85;;;10.25;;
34737;SDS011;39910;47.154;27.614;2023-03-29T02:26:02;11.20;;;10.60;;
34737;SDS011;39910;47.154;27.614;2023-03-29T02:28:30;11.13;;;10.50;;
34737;SDS011;39910;47.154;27.614;2023-03-29T02:36:38;10.40;;;9.90;;
34737;SDS011;39910;47.154;27.614;2023-03-29T02:39:08;11.07;;;10.48;;
34737;SDS011;39910;47.154;27.614;2023-03-29T02:41:34;11.90;;;11.20;;
34737;SDS011;39910;47.154;27.614;2023-03-29T02:44:01;10.88;;;10.27;;
34737;SDS011;39910;47.154;27.614;2023-03-29T02:46:28;10.60;;;10.10;;
34737;SDS011;39910;47.154;27.614;2023-03-29T02:48:53;10.90;;;10.30;;
34737;SDS011;39910;47.154;27.614;2023-03-29T02:51:23;10.43;;;9.93;;
34737;SDS011;39910;47.154;27.614;2023-03-29T02:53:52;10.70;;;10.10;;
34737;SDS011;39910;47.154;27.614;2023-03-29T02:56:19;10.48;;;9.95;;
34737;SDS011;39910;47.154;27.614;2023-03-29T02:58:45;11.05;;;10.45;;
34737;SDS011;39910;47.154;27.614;2023-03-29T03:01:10;11.05;;;10.45;;
34737;SDS011;39910;47.154;27.614;2023-03-29T03:03:36;10.80;;;10.20;;
34737;SDS011;39910;47.154;27.614;2023-03-29T03:06:02;10.95;;;10.35;;
34737;SDS011;39910;47.154;27.614;2023-03-29T03:08:27;10.80;;;10.20;;
34737;SDS011;39910;47.154;27.614;2023-03-29T03:10:53;10.65;;;10.05;;
34737;SDS011;39910;47.154;27.614;2023-03-29T03:13:19;10.75;;;10.15;;
34737;SDS011;39910;47.154;27.614;2023-03-29T03:15:44;10.63;;;10.07;;
34737;SDS011;39910;47.154;27.614;2023-03-29T03:18:13;11.80;;;11.10;;
34737;SDS011;39910;47.154;27.614;2023-03-29T03:20:38;9.93;;;9.43;;
34737;SDS011;39910;47.154;27.614;2023-03-29T03:23:04;10.30;;;9.80;;
34737;SDS011;39910;47.154;27.614;2023-03-29T03:25:33;11.43;;;10.73;;
34737;SDS011;39910;47.154;27.614;2023-03-29T03:27:59;10.43;;;9.93;;
34737;SDS011;39910;47.154;27.614;2023-03-29T03:30:25;10.23;;;9.73;;
34737;SDS011;39910;47.154;27.614;2023-03-29T03:32:51;10.70;;;10.10;;
34737;SDS011;39910;47.154;27.614;2023-03-29T03:35:18;10.93;;;10.32;;
34737;SDS011;39910;47.154;27.614;2023-03-29T03:37:44;10.48;;;9.98;;
34737;SDS011;39910;47.154;27.614;2023-03-29T03:40:09;11.07;;;10.48;;
34737;SDS011;39910;47.154;27.614;2023-03-29T03:42:36;11.43;;;10.73;;
34737;SDS011;39910;47.154;27.614;2023-03-29T03:45:01;12.38;;;11.57;;
34737;SDS011;39910;47.154;27.614;2023-03-29T03:47:26;10.45;;;9.95;;
34737;SDS011;39910;47.154;27.614;2023-03-29T03:49:52;10.88;;;10.27;;
34737;SDS011;39910;47.154;27.614;2023-03-29T03:52:17;11.65;;;10.95;;
34737;SDS011;39910;47.154;27.614;2023-03-29T03:54:43;10.70;;;10.13;;
34737;SDS011;39910;47.154;27.614;2023-03-29T03:57:10;10.48;;;9.98;;
34737;SDS011;39910;47.154;27.614;2023-03-29T03:59:36;10.60;;;10.00;;
34737;SDS011;39910;47.154;27.614;2023-03-29T04:02:03;11.02;;;10.43;;
34737;SDS011;39910;47.154;27.614;2023-03-29T04:04:28;10.85;;;10.25;;
34737;SDS011;39910;47.154;27.614;2023-03-29T04:06:54;10.55;;;10.00;;
34737;SDS011;39910;47.154;27.614;2023-03-29T04:09:27;10.60;;;10.00;;
34737;SDS011;39910;47.154;27.614;2023-03-29T04:11:53;10.32;;;9.80;;
34737;SDS011;39910;47.154;27.614;2023-03-29T04:14:18;11.07;;;10.40;;
34737;SDS011;39910;47.154;27.614;2023-03-29T04:16:44;11.23;;;10.52;;
34737;SDS011;39910;47.154;27.614;2023-03-29T04:19:12;10.48;;;9.88;;
34737;SDS011;39910;47.154;27.614;2023-03-29T04:21:37;10.23;;;9.63;;
34737;SDS011;39910;47.154;27.614;2023-03-29T04:24:03;10.00;;;9.50;;
34737;SDS011;39910;47.154;27.614;2023-03-29T04:26:28;10.32;;;9.73;;
34737;SDS011;39910;47.154;27.614;2023-03-29T04:28:54;9.40;;;8.93;;
34737;SDS011;39910;47.154;27.614;2023-03-29T04:31:19;9.85;;;9.35;;
34737;SDS011;39910;47.154;27.614;2023-03-29T04:33:45;10.43;;;9.85;;
34737;SDS011;39910;47.154;27.614;2023-03-29T04:36:11;10.55;;;9.95;;
34737;SDS011;39910;47.154;27.614;2023-03-29T04:38:38;10.43;;;9.82;;
34737;SDS011;39910;47.154;27.614;2023-03-29T04:41:06;10.50;;;9.90;;
34737;SDS011;39910;47.154;27.614;2023-03-29T04:43:32;11.60;;;10.90;;
34737;SDS011;39910;47.154;27.614;2023-03-29T04:45:58;11.15;;;10.52;;
34737;SDS011;39910;47.154;27.614;2023-03-29T04:48:23;11.38;;;10.73;;
34737;SDS011;39910;47.154;27.614;2023-03-29T04:50:49;10.73;;;10.13;;
34737;SDS011;39910;47.154;27.614;2023-03-29T04:53:15;10.77;;;10.18;;
34737;SDS011;39910;47.154;27.614;2023-03-29T04:55:41;9.93;;;9.43;;
34737;SDS011;39910;47.154;27.614;2023-03-29T04:58:06;10.23;;;9.73;;
34737;SDS011;39910;47.154;27.614;2023-03-29T05:00:33;10.55;;;10.05;;
34737;SDS011;39910;47.154;27.614;2023-03-29T05:02:59;10.50;;;10.00;;
34737;SDS011;39910;47.154;27.614;2023-03-29T05:05:24;10.50;;;10.00;;
34737;SDS011;39910;47.154;27.614;2023-03-29T05:07:49;11.02;;;10.43;;
34737;SDS011;39910;47.154;27.614;2023-03-29T05:10:15;11.60;;;11.00;;
34737;SDS011;39910;47.154;27.614;2023-03-29T05:12:40;11.60;;;11.00;;
34737;SDS011;39910;47.154;27.614;2023-03-29T05:15:06;10.65;;;10.15;;
34737;SDS011;39910;47.154;27.614;2023-03-29T05:17:32;12.18;;;11.50;;
34737;SDS011;39910;47.154;27.614;2023-03-29T05:19:58;11.20;;;10.63;;
34737;SDS011;39910;47.154;27.614;2023-03-29T05:22:25;11.18;;;10.57;;
34737;SDS011;39910;47.154;27.614;2023-03-29T05:24:51;11.35;;;10.75;;
34737;SDS011;39910;47.154;27.614;2023-03-29T05:27:17;11.35;;;10.75;;
34737;SDS011;39910;47.154;27.614;2023-03-29T05:29:42;10.38;;;9.88;;
34737;SDS011;39910;47.154;27.614;2023-03-29T05:32:09;11.48;;;10.88;;
34737;SDS011;39910;47.154;27.614;2023-03-29T05:34:34;10.38;;;9.88;;
34737;SDS011;39910;47.154;27.614;2023-03-29T05:37:00;10.32;;;9.82;;
34737;SDS011;39910;47.154;27.614;2023-03-29T05:39:25;10.60;;;10.10;;
34737;SDS011;39910;47.154;27.614;2023-03-29T05:41:51;11.45;;;10.85;;
34737;SDS011;39910;47.154;27.614;2023-03-29T05:44:17;11.10;;;10.60;;
34737;SDS011;39910;47.154;27.614;2023-03-29T05:46:42;10.63;;;10.13;;
34737;SDS011;39910;47.154;27.614;2023-03-29T05:49:07;11.48;;;10.88;;
34737;SDS011;39910;47.154;27.614;2023-03-29T05:51:33;11.55;;;10.95;;
34737;SDS011;39910;47.154;27.614;2023-03-29T05:53:59;11.18;;;10.68;;
34737;SDS011;39910;47.154;27.614;2023-03-29T05:56:25;11.18;;;10.68;;
34737;SDS011;39910;47.154;27.614;2023-03-29T05:58:52;11.05;;;10.55;;
34737;SDS011;39910;47.154;27.614;2023-03-29T06:01:17;10.98;;;10.48;;
34737;SDS011;39910;47.154;27.614;2023-03-29T06:03:43;10.60;;;10.10;;
34737;SDS011;39910;47.154;27.614;2023-03-29T06:06:10;11.30;;;10.80;;
34737;SDS011;39910;47.154;27.614;2023-03-29T06:08:39;10.50;;;10.00;;
34737;SDS011;39910;47.154;27.614;2023-03-29T06:11:05;11.15;;;10.65;;
34737;SDS011;39910;47.154;27.614;2023-03-29T06:13:32;10.80;;;10.30;;
34737;SDS011;39910;47.154;27.614;2023-03-29T06:15:58;11.18;;;10.68;;
34737;SDS011;39910;47.154;27.614;2023-03-29T06:18:23;11.00;;;10.50;;
34737;SDS011;39910;47.154;27.614;2023-03-29T06:20:49;11.02;;;10.52;;
34737;SDS011;39910;47.154;27.614;2023-03-29T06:23:16;11.70;;;11.10;;
34737;SDS011;39910;47.154;27.614;2023-03-29T06:25:42;10.95;;;10.45;;
34737;SDS011;39910;47.154;27.614;2023-03-29T06:28:08;11.32;;;10.80;;
34737;SDS011;39910;47.154;27.614;2023-03-29T06:30:33;10.43;;;9.93;;
34737;SDS011;39910;47.154;27.614;2023-03-29T06:32:59;10.50;;;10.00;;
34737;SDS011;39910;47.154;27.614;2023-03-29T06:35:25;10.80;;;10.30;;
34737;SDS011;39910;47.154;27.614;2023-03-29T06:37:51;10.70;;;10.20;;
34737;SDS011;39910;47.154;27.614;2023-03-29T06:40:17;10.77;;;10.27;;
34737;SDS011;39910;47.154;27.614;2023-03-29T06:42:43;11.15;;;10.65;;
34737;SDS011;39910;47.154;27.614;2023-03-29T06:45:10;11.20;;;10.68;;
34737;SDS011;39910;47.154;27.614;2023-03-29T06:47:35;10.70;;;10.20;;
34737;SDS011;39910;47.154;27.614;2023-03-29T06:50:00;11.40;;;10.80;;
34737;SDS011;39910;47.154;27.614;2023-03-29T06:52:26;11.68;;;11.07;;
34737;SDS011;39910;47.154;27.614;2023-03-29T06:54:51;10.80;;;10.30;;
34737;SDS011;39910;47.154;27.614;2023-03-29T06:57:16;11.65;;;11.05;;
34737;SDS011;39910;47.154;27.614;2023-03-29T06:59:42;10.43;;;9.93;;
34737;SDS011;39910;47.154;27.614;2023-03-29T07:02:08;10.82;;;10.32;;
34737;SDS011;39910;47.154;27.614;2023-03-29T07:04:33;10.60;;;10.10;;
34737;SDS011;39910;47.154;27.614;2023-03-29T07:06:59;10.82;;;10.32;;
34737;SDS011;39910;47.154;27.614;2023-03-29T07:09:28;11.32;;;10.75;;
34737;SDS011;39910;47.154;27.614;2023-03-29T07:11:55;11.05;;;10.55;;
34737;SDS011;39910;47.154;27.614;2023-03-29T07:14:20;10.48;;;9.98;;
34737;SDS011;39910;47.154;27.614;2023-03-29T07:16:45;13.65;;;12.85;;
34737;SDS011;39910;47.154;27.614;2023-03-29T07:19:11;12.20;;;11.52;;
34737;SDS011;39910;47.154;27.614;2023-03-29T07:21:36;11.88;;;11.27;;
34737;SDS011;39910;47.154;27.614;2023-03-29T07:24:01;12.55;;;11.85;;
34737;SDS011;39910;47.154;27.614;2023-03-29T07:26:28;12.15;;;11.55;;
34737;SDS011;39910;47.154;27.614;2023-03-29T07:28:54;10.95;;;10.43;;
34737;SDS011;39910;47.154;27.614;2023-03-29T07:31:20;11.18;;;10.57;;
34737;SDS011;39910;47.154;27.614;2023-03-29T07:33:45;11.55;;;10.95;;
34737;SDS011;39910;47.154;27.614;2023-03-29T07:36:13;12.82;;;12.13;;
34737;SDS011;39910;47.154;27.614;2023-03-29T07:38:39;12.85;;;12.15;;
34737;SDS011;39910;47.154;27.614;2023-03-29T07:41:05;11.23;;;10.63;;
34737;SDS011;39910;47.154;27.614;2023-03-29T07:43:30;11.38;;;10.77;;
34737;SDS011;39910;47.154;27.614;2023-03-29T07:45:59;11.48;;;10.88;;
34737;SDS011;39910;47.154;27.614;2023-03-29T07:48:24;11.85;;;11.25;;
34737;SDS011;39910;47.154;27.614;2023-03-29T07:50:50;11.80;;;11.20;;
34737;SDS011;39910;47.154;27.614;2023-03-29T07:53:15;11.25;;;10.65;;
34737;SDS011;39910;47.154;27.614;2023-03-29T07:55:41;12.30;;;11.60;;
34737;SDS011;39910;47.154;27.614;2023-03-29T07:58:11;12.25;;;11.55;;
34737;SDS011;39910;47.154;27.614;2023-03-29T08:00:36;11.50;;;10.90;;
34737;SDS011;39910;47.154;27.614;2023-03-29T08:03:02;13.15;;;12.35;;
34737;SDS011;39910;47.154;27.614;2023-03-29T08:05:28;12.55;;;11.82;;
34737;SDS011;39910;47.154;27.614;2023-03-29T08:07:53;12.75;;;11.98;;
34737;SDS011;39910;47.154;27.614;2023-03-29T08:10:20;11.73;;;11.02;;
34737;SDS011;39910;47.154;27.614;2023-03-29T08:12:46;11.30;;;10.70;;
34737;SDS011;39910;47.154;27.614;2023-03-29T08:15:12;11.73;;;11.02;;
34737;SDS011;39910;47.154;27.614;2023-03-29T08:17:37;12.18;;;11.48;;
34737;SDS011;39910;47.154;27.614;2023-03-29T08:20:03;11.88;;;11.18;;
34737;SDS011;39910;47.154;27.614;2023-03-29T08:22:30;12.63;;;11.82;;
34737;SDS011;39910;47.154;27.614;2023-03-29T08:24:56;11.60;;;10.90;;
34737;SDS011;39910;47.154;27.614;2023-03-29T08:27:21;12.02;;;11.32;;
34737;SDS011;39910;47.154;27.614;2023-03-29T08:29:47;11.13;;;10.52;;
34737;SDS011;39910;47.154;27.614;2023-03-29T08:32:12;12.77;;;11.98;;
34737;SDS011;39910;47.154;27.614;2023-03-29T08:34:38;13.07;;;12.27;;
34737;SDS011;39910;47.154;27.614;2023-03-29T08:37:03;11.90;;;11.20;;
34737;SDS011;39910;47.154;27.614;2023-03-29T08:39:29;12.07;;;11.38;;
34737;SDS011;39910;47.154;27.614;2023-03-29T08:44:28;12.52;;;11.73;;
34737;SDS011;39910;47.154;27.614;2023-03-29T08:49:31;13.40;;;12.50;;
34737;SDS011;39910;47.154;27.614;2023-03-29T08:51:58;11.20;;;10.60;;
34737;SDS011;39910;47.154;27.614;2023-03-29T08:54:25;10.27;;;9.77;;
34737;SDS011;39910;47.154;27.614;2023-03-29T08:56:53;11.48;;;10.77;;
34737;SDS011;39910;47.154;27.614;2023-03-29T08:59:22;12.57;;;11.77;;
34737;SDS011;39910;47.154;27.614;2023-03-29T09:01:50;12.50;;;11.70;;
34737;SDS011;39910;47.154;27.614;2023-03-29T09:04:19;12.35;;;11.55;;
34737;SDS011;39910;47.154;27.614;2023-03-29T09:06:46;14.05;;;13.05;;
34737;SDS011;39910;47.154;27.614;2023-03-29T09:09:22;13.32;;;12.43;;
34737;SDS011;39910;47.154;27.614;2023-03-29T09:11:51;11.70;;;11.00;;
34737;SDS011;39910;47.154;27.614;2023-03-29T09:27:03;11.38;;;10.70;;
34737;SDS011;39910;47.154;27.614;2023-03-29T09:32:28;11.45;;;10.75;;
34737;SDS011;39910;47.154;27.614;2023-03-29T09:37:27;13.43;;;12.48;;
34737;SDS011;39910;47.154;27.614;2023-03-29T09:39:54;13.15;;;12.25;;
34737;SDS011;39910;47.154;27.614;2023-03-29T09:42:21;11.90;;;11.20;;
34737;SDS011;39910;47.154;27.614;2023-03-29T09:44:49;12.40;;;11.60;;
34737;SDS011;39910;47.154;27.614;2023-03-29T09:47:18;12.95;;;12.05;;
34737;SDS011;39910;47.154;27.614;2023-03-29T09:49:45;11.15;;;10.45;;
34737;SDS011;39910;47.154;27.614;2023-03-29T09:52:12;11.52;;;10.82;;
34737;SDS011;39910;47.154;27.614;2023-03-29T09:54:39;12.38;;;11.57;;
34737;SDS011;39910;47.154;27.614;2023-03-29T09:57:04;11.63;;;10.93;;
34737;SDS011;39910;47.154;27.614;2023-03-29T09:59:29;11.85;;;11.15;;
34737;SDS011;39910;47.154;27.614;2023-03-29T10:02:04;12.30;;;11.50;;
34737;SDS011;39910;47.154;27.614;2023-03-29T10:04:30;12.77;;;11.90;;
34737;SDS011;39910;47.154;27.614;2023-03-29T10:06:55;11.65;;;10.95;;
34737;SDS011;39910;47.154;27.614;2023-03-29T10:09:22;12.93;;;12.02;;
34737;SDS011;39910;47.154;27.614;2023-03-29T10:11:55;12.15;;;11.35;;
34737;SDS011;39910;47.154;27.614;2023-03-29T10:14:42;12.60;;;11.80;;
34737;SDS011;39910;47.154;27.614;2023-03-29T10:17:18;11.75;;;11.05;;
34737;SDS011;39910;47.154;27.614;2023-03-29T10:22:28;11.90;;;11.15;;
34737;SDS011;39910;47.154;27.614;2023-03-29T10:24:56;12.07;;;11.27;;
34737;SDS011;39910;47.154;27.614;2023-03-29T10:27:25;12.85;;;11.95;;
34737;SDS011;39910;47.154;27.614;2023-03-29T10:29:51;12.77;;;11.88;;
34737;SDS011;39910;47.154;27.614;2023-03-29T10:32:22;13.18;;;12.27;;
34737;SDS011;39910;47.154;27.614;2023-03-29T10:34:50;13.73;;;12.73;;
34737;SDS011;39910;47.154;27.614;2023-03-29T10:37:19;12.70;;;11.88;;
34737;SDS011;39910;47.154;27.614;2023-03-29T10:39:48;13.20;;;12.30;;
34737;SDS011;39910;47.154;27.614;2023-03-29T10:42:14;11.73;;;11.02;;
34737;SDS011;39910;47.154;27.614;2023-03-29T10:44:41;13.20;;;12.30;;
34737;SDS011;39910;47.154;27.614;2023-03-29T10:47:16;11.70;;;11.00;;
34737;SDS011;39910;47.154;27.614;2023-03-29T10:49:44;11.05;;;10.40;;
34737;SDS011;39910;47.154;27.614;2023-03-29T10:52:13;11.57;;;10.88;;
34737;SDS011;39910;47.154;27.614;2023-03-29T10:54:39;12.48;;;11.68;;
34737;SDS011;39910;47.154;27.614;2023-03-29T10:57:05;12.68;;;11.85;;
34737;SDS011;39910;47.154;27.614;2023-03-29T10:59:42;11.93;;;11.20;;
34737;SDS011;39910;47.154;27.614;2023-03-29T11:07:30;13.20;;;12.30;;
34737;SDS011;39910;47.154;27.614;2023-03-29T11:14:54;12.05;;;11.32;;
34737;SDS011;39910;47.154;27.614;2023-03-29T11:22:34;12.57;;;11.73;;
34737;SDS011;39910;47.154;27.614;2023-03-29T11:30:42;12.38;;;11.55;;
34737;SDS011;39910;47.154;27.614;2023-03-29T11:33:48;11.32;;;10.63;;
34737;SDS011;39910;47.154;27.614;2023-03-29T11:38:34;12.45;;;11.63;;
34737;SDS011;39910;47.154;27.614;2023-03-29T11:41:09;11.65;;;10.95;;
34737;SDS011;39910;47.154;27.614;2023-03-29T11:43:38;12.10;;;11.30;;
34737;SDS011;39910;47.154;27.614;2023-03-29T11:48:41;12.15;;;11.35;;
34737;SDS011;39910;47.154;27.614;2023-03-29T11:51:16;11.43;;;10.73;;
34737;SDS011;39910;47.154;27.614;2023-03-29T11:56:16;12.02;;;11.23;;
34737;SDS011;39910;47.154;27.614;2023-03-29T11:58:47;11.38;;;10.68;;
34737;SDS011;39910;47.154;27.614;2023-03-29T12:01:47;11.43;;;10.73;;
34737;SDS011;39910;47.154;27.614;2023-03-29T12:04:08;12.55;;;11.70;;
34737;SDS011;39910;47.154;27.614;2023-03-29T12:06:38;11.60;;;10.88;;
34737;SDS011;39910;47.154;27.614;2023-03-29T12:11:35;12.63;;;11.75;;
34737;SDS011;39910;47.154;27.614;2023-03-29T12:14:09;11.98;;;11.18;;
34737;SDS011;39910;47.154;27.614;2023-03-29T12:16:47;12.10;;;11.30;;
34737;SDS011;39910;47.154;27.614;2023-03-29T12:22:08;13.07;;;12.18;;
34737;SDS011;39910;47.154;27.614;2023-03-29T12:24:34;11.55;;;10.85;;
34737;SDS011;39910;47.154;27.614;2023-03-29T12:27:06;11.45;;;10.75;;
34737;SDS011;39910;47.154;27.614;2023-03-29T12:32:26;11.93;;;11.20;;
34737;SDS011;39910;47.154;27.614;2023-03-29T12:40:14;10.85;;;10.25;;
34737;SDS011;39910;47.154;27.614;2023-03-29T12:42:54;12.32;;;11.52;;
34737;SDS011;39910;47.154;27.614;2023-03-29T12:45:31;11.43;;;10.73;;
34737;SDS011;39910;47.154;27.614;2023-03-29T12:47:57;10.45;;;9.85;;
34737;SDS011;39910;47.154;27.614;2023-03-29T12:50:30;10.48;;;9.88;;
34737;SDS011;39910;47.154;27.614;2023-03-29T12:55:50;11.30;;;10.60;;
34737;SDS011;39910;47.154;27.614;2023-03-29T13:01:03;11.50;;;10.80;;
34737;SDS011;39910;47.154;27.614;2023-03-29T13:06:08;11.55;;;10.85;;
34737;SDS011;39910;47.154;27.614;2023-03-29T13:08:35;11.23;;;10.52;;
34737;SDS011;39910;47.154;27.614;2023-03-29T13:11:01;11.70;;;10.98;;
34737;SDS011;39910;47.154;27.614;2023-03-29T13:13:32;11.95;;;11.18;;
34737;SDS011;39910;47.154;27.614;2023-03-29T13:18:42;11.07;;;10.45;;
34737;SDS011;39910;47.154;27.614;2023-03-29T13:23:56;13.35;;;12.45;;
34737;SDS011;39910;47.154;27.614;2023-03-29T13:31:40;11.13;;;10.48;;
34737;SDS011;39910;47.154;27.614;2023-03-29T13:35:09;10.80;;;10.20;;
34737;SDS011;39910;47.154;27.614;2023-03-29T13:39:32;11.98;;;11.18;;
34737;SDS011;39910;47.154;27.614;2023-03-29T13:42:15;12.10;;;11.30;;
34737;SDS011;39910;47.154;27.614;2023-03-29T13:44:42;11.52;;;10.82;;
34737;SDS011;39910;47.154;27.614;2023-03-29T13:49:54;12.15;;;11.35;;
34737;SDS011;39910;47.154;27.614;2023-03-29T13:52:22;12.23;;;11.43;;
34737;SDS011;39910;47.154;27.614;2023-03-29T13:54:58;12.23;;;11.43;;
34737;SDS011;39910;47.154;27.614;2023-03-29T13:57:38;12.32;;;11.52;;
34737;SDS011;39910;47.154;27.614;2023-03-29T14:02:40;11.60;;;10.88;;
34737;SDS011;39910;47.154;27.614;2023-03-29T14:05:06;11.27;;;10.57;;
34737;SDS011;39910;47.154;27.614;2023-03-29T14:07:33;11.63;;;10.93;;
34737;SDS011;39910;47.154;27.614;2023-03-29T14:10:01;11.70;;;11.00;;
34737;SDS011;39910;47.154;27.614;2023-03-29T14:12:29;11.52;;;10.82;;
34737;SDS011;39910;47.154;27.614;2023-03-29T14:14:57;11.07;;;10.43;;
34737;SDS011;39910;47.154;27.614;2023-03-29T14:17:24;12.25;;;11.45;;
34737;SDS011;39910;47.154;27.614;2023-03-29T14:19:50;12.82;;;11.95;;
34737;SDS011;39910;47.154;27.614;2023-03-29T14:22:18;11.90;;;11.18;;
34737;SDS011;39910;47.154;27.614;2023-03-29T14:24:50;12.18;;;11.38;;
34737;SDS011;39910;47.154;27.614;2023-03-29T14:27:15;11.20;;;10.50;;
34737;SDS011;39910;47.154;27.614;2023-03-29T14:29:44;11.52;;;10.82;;
34737;SDS011;39910;47.154;27.614;2023-03-29T14:32:16;13.05;;;12.15;;
34737;SDS011;39910;47.154;27.614;2023-03-29T14:34:42;12.32;;;11.52;;
34737;SDS011;39910;47.154;27.614;2023-03-29T14:37:11;11.48;;;10.77;;
34737;SDS011;39910;47.154;27.614;2023-03-29T14:39:38;10.68;;;10.07;;
34737;SDS011;39910;47.154;27.614;2023-03-29T14:42:08;11.73;;;11.02;;
34737;SDS011;39910;47.154;27.614;2023-03-29T14:44:34;13.90;;;12.90;;
34737;SDS011;39910;47.154;27.614;2023-03-29T14:47:01;13.40;;;12.45;;
34737;SDS011;39910;47.154;27.614;2023-03-29T14:49:27;13.10;;;12.20;;
34737;SDS011;39910;47.154;27.614;2023-03-29T14:51:52;12.57;;;11.75;;
34737;SDS011;39910;47.154;27.614;2023-03-29T14:54:20;14.13;;;13.13;;
34737;SDS011;39910;47.154;27.614;2023-03-29T14:56:46;13.38;;;12.48;;
34737;SDS011;39910;47.154;27.614;2023-03-29T14:59:34;12.02;;;11.23;;
34737;SDS011;39910;47.154;27.614;2023-03-29T15:02:00;12.30;;;11.50;;
34737;SDS011;39910;47.154;27.614;2023-03-29T15:04:32;12.73;;;11.82;;
34737;SDS011;39910;47.154;27.614;2023-03-29T15:06:58;13.00;;;12.10;;
34737;SDS011;39910;47.154;27.614;2023-03-29T15:09:29;13.73;;;12.73;;
34737;SDS011;39910;47.154;27.614;2023-03-29T15:11:57;13.07;;;12.18;;
34737;SDS011;39910;47.154;27.614;2023-03-29T15:14:23;14.00;;;13.00;;
34737;SDS011;39910;47.154;27.614;2023-03-29T15:16:51;13.40;;;12.45;;
34737;SDS011;39910;47.154;27.614;2023-03-29T15:19:19;12.80;;;11.90;;
34737;SDS011;39910;47.154;27.614;2023-03-29T15:21:46;12.95;;;12.05;;
34737;SDS011;39910;47.154;27.614;2023-03-29T15:26:56;12.45;;;11.63;;
34737;SDS011;39910;47.154;27.614;2023-03-29T15:29:21;13.20;;;12.30;;
34737;SDS011;39910;47.154;27.614;2023-03-29T15:31:54;13.88;;;12.88;;
34737;SDS011;39910;47.154;27.614;2023-03-29T15:34:28;13.82;;;12.82;;
34737;SDS011;39910;47.154;27.614;2023-03-29T15:36:53;14.05;;;13.05;;
34737;SDS011;39910;47.154;27.614;2023-03-29T15:39:19;12.68;;;11.82;;
34737;SDS011;39910;47.154;27.614;2023-03-29T15:41:48;13.20;;;12.30;;
34737;SDS011;39910;47.154;27.614;2023-03-29T15:44:14;13.32;;;12.38;;
34737;SDS011;39910;47.154;27.614;2023-03-29T15:46:39;13.18;;;12.27;;
34737;SDS011;39910;47.154;27.614;2023-03-29T15:49:04;11.90;;;11.10;;
34737;SDS011;39910;47.154;27.614;2023-03-29T15:51:30;12.25;;;11.45;;
34737;SDS011;39910;47.154;27.614;2023-03-29T15:53:55;12.75;;;11.85;;
34737;SDS011;39910;47.154;27.614;2023-03-29T15:56:21;14.32;;;13.25;;
34737;SDS011;39910;47.154;27.614;2023-03-29T15:58:47;11.82;;;11.02;;
34737;SDS011;39910;47.154;27.614;2023-03-29T16:03:39;10.88;;;10.27;;
34737;SDS011;39910;47.154;27.614;2023-03-29T16:06:08;11.35;;;10.65;;
34737;SDS011;39910;47.154;27.614;2023-03-29T16:08:34;12.80;;;11.93;;
34737;SDS011;39910;47.154;27.614;2023-03-29T16:10:59;11.02;;;10.38;;
34737;SDS011;39910;47.154;27.614;2023-03-29T16:13:25;10.63;;;10.02;;
34737;SDS011;39910;47.154;27.614;2023-03-29T16:15:50;10.55;;;9.95;;